createdAt,value
2023-05-11T00:01:59.073Z,31.18
2023-05-11T00:04:25.681Z,30.92
2023-05-11T00:06:54.347Z,31.12
2023-05-11T00:09:21.014Z,31.17
2023-05-11T00:11:47.540Z,31.30
2023-05-11T00:14:14.316Z,31.14
2023-05-11T00:16:40.784Z,31.42
2023-05-11T00:19:07.351Z,31.17
2023-05-11T00:21:33.761Z,31.22
2023-05-11T00:24:00.206Z,31.46
2023-05-11T00:26:26.600Z,31.49
2023-05-11T00:28:53.452Z,31.57
2023-05-11T00:31:19.873Z,31.61
2023-05-11T00:33:46.898Z,31.55
2023-05-11T00:36:13.395Z,31.49
2023-05-11T00:38:40.026Z,31.56
2023-05-11T00:41:07.625Z,31.82
2023-05-11T00:43:34.036Z,31.85
2023-05-11T00:46:00.475Z,31.47
2023-05-11T00:48:27.025Z,31.45
2023-05-11T00:50:53.671Z,31.99
2023-05-11T00:53:20.409Z,32.11
2023-05-11T00:55:46.955Z,31.90
2023-05-11T00:58:13.485Z,32.46
2023-05-11T01:00:40.051Z,31.95
2023-05-11T01:03:06.653Z,32.05
2023-05-11T01:05:33.539Z,32.19
2023-05-11T01:08:00.029Z,32.13
2023-05-11T01:10:26.524Z,32.49
2023-05-11T01:12:52.965Z,32.27
2023-05-11T01:15:19.438Z,32.49
2023-05-11T01:17:46.471Z,32.20
2023-05-11T01:20:13.024Z,32.01
2023-05-11T01:22:39.567Z,32.36
2023-05-11T01:25:06.180Z,32.49
2023-05-11T01:27:32.546Z,32.35
2023-05-11T01:29:59.187Z,32.31
2023-05-11T01:32:25.639Z,32.79
2023-05-11T01:34:52.064Z,32.70
2023-05-11T01:37:18.521Z,32.85
2023-05-11T01:39:44.977Z,32.44
2023-05-11T01:42:14.015Z,32.62
2023-05-11T01:44:40.586Z,32.17
2023-05-11T01:47:06.980Z,32.71
2023-05-11T01:49:33.451Z,32.47
2023-05-11T01:52:00.108Z,32.49
2023-05-11T01:54:26.520Z,33.00
2023-05-11T01:56:54.956Z,32.94
2023-05-11T01:59:21.377Z,33.26
2023-05-11T02:01:47.932Z,33.33
2023-05-11T02:04:14.385Z,33.06
2023-05-11T02:06:40.942Z,33.25
2023-05-11T02:09:07.369Z,33.16
2023-05-11T02:11:33.839Z,33.25
2023-05-11T02:14:00.508Z,33.40
2023-05-11T02:16:28.112Z,33.41
2023-05-11T02:18:54.872Z,33.35
2023-05-11T02:21:21.217Z,34.07
2023-05-11T02:23:49.641Z,33.71
2023-05-11T02:26:18.582Z,33.95
2023-05-11T02:28:44.978Z,33.97
2023-05-11T02:31:11.606Z,33.94
2023-05-11T02:33:38.151Z,34.32
2023-05-11T02:36:04.549Z,34.36
2023-05-11T02:38:30.955Z,34.28
2023-05-11T02:40:57.422Z,34.42
2023-05-11T02:43:23.803Z,34.24
2023-05-11T02:45:50.260Z,34.41
2023-05-11T02:48:16.683Z,34.39
2023-05-11T02:50:43.182Z,34.65
2023-05-11T02:53:09.660Z,34.24
2023-05-11T02:55:36.155Z,34.73
2023-05-11T02:58:02.565Z,34.38
2023-05-11T03:00:29.198Z,34.18
2023-05-11T03:02:55.923Z,34.36
2023-05-11T03:05:22.394Z,34.40
2023-05-11T03:07:48.811Z,34.23
2023-05-11T03:10:15.475Z,34.55
2023-05-11T03:12:42.537Z,34.29
2023-05-11T03:15:09.930Z,34.63
2023-05-11T03:17:36.391Z,34.50
2023-05-11T03:20:06.210Z,34.36
2023-05-11T03:22:32.597Z,34.34
2023-05-11T03:24:58.992Z,34.34
2023-05-11T03:27:25.385Z,34.37
2023-05-11T03:29:52.073Z,34.44
2023-05-11T03:32:18.529Z,34.23
2023-05-11T03:34:44.981Z,34.77
2023-05-11T03:37:11.459Z,34.57
2023-05-11T03:39:37.857Z,34.78
2023-05-11T03:42:06.208Z,34.85
2023-05-11T03:44:32.574Z,34.52
2023-05-11T03:46:58.957Z,34.60
2023-05-11T03:49:25.400Z,34.62
2023-05-11T03:51:51.849Z,34.49
2023-05-11T03:54:20.377Z,34.69
2023-05-11T03:56:46.777Z,34.53
2023-05-11T03:59:13.249Z,34.52
2023-05-11T04:01:39.684Z,34.84
2023-05-11T04:04:06.174Z,34.63
2023-05-11T04:06:32.650Z,34.81
2023-05-11T04:08:59.170Z,35.01
2023-05-11T04:11:25.775Z,34.77
2023-05-11T04:13:52.310Z,35.12
2023-05-11T04:16:20.771Z,35.31
2023-05-11T04:18:47.364Z,35.54
2023-05-11T04:21:13.751Z,35.04
2023-05-11T04:23:40.141Z,34.91
2023-05-11T04:26:06.570Z,34.94
2023-05-11T04:28:33.145Z,35.24
2023-05-11T04:30:59.520Z,35.32
2023-05-11T04:33:25.904Z,35.35
2023-05-11T04:35:53.218Z,35.72
2023-05-11T04:38:19.697Z,35.77
2023-05-11T04:40:46.104Z,35.91
2023-05-11T04:43:12.548Z,35.84
2023-05-11T04:45:39.220Z,35.86
2023-05-11T04:48:05.727Z,35.95
2023-05-11T04:50:32.113Z,36.21
2023-05-11T04:52:58.550Z,35.85
2023-05-11T04:55:25.047Z,35.40
2023-05-11T04:57:52.042Z,35.56
2023-05-11T05:00:19.029Z,35.35
2023-05-11T05:02:45.800Z,35.90
2023-05-11T05:05:12.497Z,35.49
2023-05-11T05:07:38.924Z,35.63
2023-05-11T05:10:05.578Z,35.38
2023-05-11T05:12:32.023Z,35.87
2023-05-11T05:14:58.436Z,35.39
2023-05-11T05:17:24.816Z,35.39
2023-05-11T05:19:51.404Z,35.15
2023-05-11T05:22:18.140Z,35.44
2023-05-11T05:24:45.192Z,35.05
2023-05-11T05:27:11.695Z,34.74
2023-05-11T05:29:38.098Z,35.03
2023-05-11T05:32:04.518Z,35.04
2023-05-11T05:34:30.905Z,34.77
2023-05-11T05:36:57.396Z,34.62
2023-05-11T05:39:23.951Z,34.77
2023-05-11T05:41:50.284Z,34.69
2023-05-11T05:44:16.939Z,34.96
2023-05-11T05:46:43.381Z,34.85
2023-05-11T05:49:09.808Z,35.09
2023-05-11T05:51:36.267Z,34.53
2023-05-11T05:54:02.760Z,34.82
2023-05-11T05:56:29.222Z,35.45
2023-05-11T05:58:55.882Z,35.23
2023-05-11T06:01:22.222Z,35.44
2023-05-11T06:03:49.371Z,35.26
2023-05-11T06:06:18.366Z,35.17
2023-05-11T06:08:45.012Z,35.08
2023-05-11T06:11:11.445Z,35.13
2023-05-11T06:13:37.864Z,35.27
2023-05-11T06:16:04.369Z,34.82
2023-05-11T06:18:31.151Z,34.70
2023-05-11T06:20:57.719Z,34.73
2023-05-11T06:23:24.322Z,35.27
2023-05-11T06:25:50.812Z,34.96
2023-05-11T06:28:23.331Z,34.39
2023-05-11T06:30:49.703Z,34.75
2023-05-11T06:33:16.160Z,34.69
2023-05-11T06:35:42.711Z,34.59
2023-05-11T06:38:09.191Z,34.61
2023-05-11T06:40:36.129Z,34.78
2023-05-11T06:43:02.842Z,34.95
2023-05-11T06:45:29.290Z,35.18
2023-05-11T06:47:56.095Z,34.48
2023-05-11T06:50:25.095Z,34.71
2023-05-11T06:52:53.684Z,34.42
2023-05-11T06:55:20.315Z,34.43
2023-05-11T06:57:46.682Z,33.17
2023-05-11T07:00:13.127Z,33.35
2023-05-11T07:02:39.490Z,33.20
2023-05-11T07:05:06.018Z,33.49
2023-05-11T07:07:32.438Z,32.97
2023-05-11T07:09:59.009Z,33.76
2023-05-11T07:12:26.017Z,33.32
2023-05-11T07:14:52.653Z,33.67
2023-05-11T07:17:19.089Z,33.15
2023-05-11T07:19:45.459Z,32.65
2023-05-11T07:22:13.452Z,33.50
2023-05-11T07:24:41.374Z,33.06
2023-05-11T07:27:07.785Z,32.92
2023-05-11T07:29:34.144Z,32.34
2023-05-11T07:32:00.572Z,32.55
2023-05-11T07:34:26.943Z,32.25
2023-05-11T07:36:53.425Z,32.18
2023-05-11T07:39:19.863Z,32.22
2023-05-11T07:41:46.285Z,31.64
2023-05-11T07:44:12.679Z,32.28
2023-05-11T07:46:39.066Z,32.14
2023-05-11T07:49:15.626Z,31.95
2023-05-11T07:51:47.190Z,31.43
2023-05-11T07:54:13.767Z,31.52
2023-05-11T07:56:40.206Z,31.94
2023-05-11T07:59:06.575Z,31.72
2023-05-11T08:01:32.975Z,31.82
2023-05-11T08:03:59.440Z,31.55
2023-05-11T08:06:25.932Z,31.29
2023-05-11T08:08:52.693Z,31.33
2023-05-11T08:11:19.300Z,31.64
2023-05-11T08:13:45.943Z,31.58
2023-05-11T08:16:12.618Z,31.50
2023-05-11T08:18:39.243Z,31.74
2023-05-11T08:21:05.741Z,31.63
2023-05-11T08:23:32.289Z,32.02
2023-05-11T08:25:58.654Z,31.86
2023-05-11T08:28:25.044Z,31.74
2023-05-11T08:30:51.468Z,31.64
2023-05-11T08:33:35.868Z,31.85
2023-05-11T08:36:03.589Z,31.63
2023-05-11T08:38:30.292Z,31.57
2023-05-11T08:40:56.682Z,31.47
2023-05-11T08:43:23.886Z,31.89
2023-05-11T08:45:50.425Z,31.84
2023-05-11T08:48:17.240Z,31.88
2023-05-11T08:50:43.677Z,31.64
2023-05-11T08:53:10.077Z,31.64
2023-05-11T08:55:37.463Z,32.18
2023-05-11T08:58:03.959Z,31.92
2023-05-11T09:00:30.428Z,32.56
2023-05-11T09:02:56.960Z,32.04
2023-05-11T09:05:24.047Z,31.63
2023-05-11T09:07:50.865Z,31.56
2023-05-11T09:10:17.302Z,31.62
2023-05-11T09:12:43.771Z,31.50
2023-05-11T09:15:10.178Z,31.85
2023-05-11T09:17:36.583Z,31.64
2023-05-11T09:20:03.996Z,31.16
2023-05-11T09:22:32.129Z,31.58
2023-05-11T09:25:00.321Z,31.33
2023-05-11T09:27:26.738Z,31.23
2023-05-11T09:29:53.041Z,30.95
2023-05-11T09:32:19.610Z,30.90
2023-05-11T09:34:46.189Z,30.78
2023-05-11T09:37:13.670Z,29.56
2023-05-11T09:39:53.230Z,29.89
2023-05-11T09:42:25.306Z,29.49
2023-05-11T09:44:51.905Z,29.02
2023-05-11T09:47:18.342Z,29.05
2023-05-11T09:49:45.187Z,28.89
2023-05-11T09:52:11.553Z,29.12
2023-05-11T09:54:38.024Z,28.61
2023-05-11T09:57:04.463Z,28.67
2023-05-11T09:59:31.075Z,28.62
2023-05-11T10:01:57.496Z,28.13
2023-05-11T10:04:24.693Z,28.52
2023-05-11T10:06:51.254Z,27.58
2023-05-11T10:09:17.694Z,29.31
2023-05-11T10:11:44.840Z,27.44
2023-05-11T10:14:11.279Z,27.45
2023-05-11T10:16:38.738Z,27.61
2023-05-11T10:19:05.197Z,28.08
2023-05-11T10:21:31.592Z,27.46
2023-05-11T10:23:58.071Z,27.31
2023-05-11T10:26:24.669Z,27.51
2023-05-11T10:28:51.041Z,27.69
2023-05-11T10:31:17.896Z,27.30
2023-05-11T10:33:44.403Z,28.17
2023-05-11T10:36:10.981Z,28.35
2023-05-11T10:38:37.539Z,27.75
2023-05-11T10:41:03.979Z,27.79
2023-05-11T10:43:30.448Z,28.38
2023-05-11T10:45:56.814Z,28.02
2023-05-11T10:48:23.376Z,28.34
2023-05-11T10:50:49.931Z,28.32
2023-05-11T10:53:16.312Z,28.31
2023-05-11T10:55:44.687Z,28.44
2023-05-11T10:58:12.730Z,28.04
2023-05-11T11:00:39.184Z,28.16
2023-05-11T11:03:05.704Z,28.61
2023-05-11T11:05:32.275Z,28.26
2023-05-11T11:07:58.689Z,28.50
2023-05-11T11:10:25.291Z,28.39
2023-05-11T11:12:52.706Z,28.46
2023-05-11T11:15:19.471Z,28.31
2023-05-11T11:17:46.230Z,28.06
2023-05-11T11:20:12.943Z,27.72
2023-05-11T11:22:39.422Z,28.25
2023-05-11T11:25:05.858Z,28.15
2023-05-11T11:27:32.224Z,27.93
2023-05-11T11:30:00.627Z,28.28
2023-05-11T11:32:27.148Z,28.06
2023-05-11T11:34:53.538Z,28.54
2023-05-11T11:37:20.351Z,28.67
2023-05-11T11:39:46.859Z,28.28
2023-05-11T11:42:13.301Z,27.79
2023-05-11T11:44:39.723Z,27.09
2023-05-11T11:47:06.116Z,27.04
2023-05-11T11:49:32.899Z,26.76
2023-05-11T11:51:59.482Z,26.63
2023-05-11T11:54:25.897Z,26.67
2023-05-11T11:56:52.267Z,27.24
2023-05-11T11:59:18.657Z,26.79
2023-05-11T12:01:45.123Z,26.84
2023-05-11T12:04:11.703Z,26.47
2023-05-11T12:06:38.237Z,25.98
2023-05-11T12:09:04.616Z,26.37
2023-05-11T12:11:31.263Z,26.33
2023-05-11T12:13:57.689Z,26.05
2023-05-11T12:16:24.245Z,26.62
2023-05-11T12:18:50.676Z,26.77
2023-05-11T12:21:17.350Z,26.22
2023-05-11T12:23:43.715Z,25.02
2023-05-11T12:26:12.432Z,25.13
2023-05-11T12:28:39.138Z,24.81
2023-05-11T12:31:05.842Z,24.70
2023-05-11T12:33:32.640Z,24.84
2023-05-11T12:35:59.057Z,24.58
2023-05-11T12:38:25.810Z,24.98
2023-05-11T12:40:52.281Z,24.51
2023-05-11T12:43:18.651Z,24.77
2023-05-11T12:45:45.085Z,25.14
2023-05-11T12:48:11.486Z,24.43
2023-05-11T12:50:37.930Z,25.15
2023-05-11T12:53:04.338Z,24.72
2023-05-11T12:55:30.764Z,24.57
2023-05-11T12:57:57.189Z,24.57
2023-05-11T13:00:23.831Z,25.01
2023-05-11T13:02:50.467Z,24.94
2023-05-11T13:05:17.367Z,24.39
2023-05-11T13:07:43.917Z,23.28
2023-05-11T13:10:10.348Z,24.35
2023-05-11T13:12:36.745Z,24.16
2023-05-11T13:15:03.085Z,24.24
2023-05-11T13:17:29.498Z,23.52
2023-05-11T13:19:55.867Z,24.21
2023-05-11T13:22:22.437Z,23.87
2023-05-11T13:24:48.778Z,24.29
2023-05-11T13:27:15.235Z,24.76
2023-05-11T13:29:41.645Z,23.53
2023-05-11T13:32:08.079Z,24.70
2023-05-11T13:34:34.466Z,24.72
2023-05-11T13:37:00.821Z,23.83
2023-05-11T13:39:27.185Z,23.72
2023-05-11T13:41:55.795Z,24.51
2023-05-11T13:44:22.644Z,24.58
2023-05-11T13:49:15.652Z,24.00
2023-05-11T13:51:42.827Z,24.46
2023-05-11T13:54:09.539Z,23.76
2023-05-11T13:56:35.979Z,24.36
2023-05-11T13:59:02.474Z,22.97
2023-05-11T14:01:28.918Z,23.13
2023-05-11T14:03:55.415Z,23.24
2023-05-11T14:06:21.893Z,23.51
2023-05-11T14:08:48.253Z,23.40
2023-05-11T14:11:14.630Z,23.96
2023-05-11T14:13:40.965Z,23.67
2023-05-11T14:16:07.360Z,23.82
2023-05-11T14:18:33.853Z,23.72
2023-05-11T14:21:00.375Z,23.32
2023-05-11T14:23:26.733Z,23.37
2023-05-11T14:25:53.160Z,24.35
2023-05-11T14:28:19.602Z,23.56
2023-05-11T14:30:46.007Z,24.26
2023-05-11T14:33:12.494Z,23.18
2023-05-11T14:35:39.868Z,22.96
2023-05-11T14:38:06.565Z,23.72
2023-05-11T14:40:32.924Z,23.17
2023-05-11T14:42:59.261Z,23.76
2023-05-11T14:45:25.662Z,23.33
2023-05-11T14:47:52.159Z,23.44
2023-05-11T14:50:18.673Z,24.18
2023-05-11T14:52:45.151Z,23.50
2023-05-11T14:55:11.821Z,23.47
2023-05-11T14:57:38.138Z,22.89
2023-05-11T15:00:04.542Z,23.20
2023-05-11T15:02:31.028Z,23.59
2023-05-11T15:04:57.491Z,23.04
2023-05-11T15:07:23.866Z,22.72
2023-05-11T15:09:50.223Z,23.07
2023-05-11T15:12:16.714Z,22.14
2023-05-11T15:14:43.062Z,22.87
2023-05-11T15:17:09.550Z,22.86
2023-05-11T15:19:35.963Z,22.38
2023-05-11T15:22:02.401Z,23.11
2023-05-11T15:24:28.772Z,23.90
2023-05-11T15:26:56.191Z,23.81
2023-05-11T15:29:23.759Z,23.38
2023-05-11T15:31:50.200Z,23.26
2023-05-11T15:34:16.703Z,23.03
2023-05-11T15:36:43.077Z,22.67
2023-05-11T15:39:09.462Z,22.73
2023-05-11T15:41:35.910Z,23.11
2023-05-11T15:44:04.631Z,22.59
2023-05-11T15:46:31.038Z,22.43
2023-05-11T15:48:59.683Z,23.17
2023-05-11T15:51:29.138Z,23.39
2023-05-11T15:53:55.517Z,23.19
2023-05-11T15:56:22.005Z,23.18
2023-05-11T15:58:48.451Z,23.41
2023-05-11T16:01:14.973Z,23.09
2023-05-11T16:03:41.537Z,23.50
2023-05-11T16:06:08.388Z,23.71
2023-05-11T16:08:34.781Z,23.65
2023-05-11T16:11:01.316Z,23.37
2023-05-11T16:13:27.810Z,23.29
2023-05-11T16:15:54.296Z,23.15
2023-05-11T16:18:20.893Z,22.72
2023-05-11T16:20:47.406Z,23.01
2023-05-11T16:23:13.832Z,23.41
2023-05-11T16:25:40.296Z,23.94
2023-05-11T16:28:07.017Z,23.21
2023-05-11T16:30:34.863Z,23.18
2023-05-11T16:33:01.483Z,23.31
2023-05-11T16:35:28.109Z,22.46
2023-05-11T16:37:54.633Z,22.57
2023-05-11T16:40:21.494Z,22.74
2023-05-11T16:42:48.437Z,23.21
2023-05-11T16:45:15.075Z,22.85
2023-05-11T16:47:43.122Z,23.09
2023-05-11T16:50:09.939Z,22.63
2023-05-11T16:52:36.943Z,22.60
2023-05-11T16:55:04.061Z,22.74
2023-05-11T16:57:31.118Z,22.58
2023-05-11T16:59:58.109Z,23.58
2023-05-11T17:02:25.036Z,23.36
2023-05-11T17:04:52.112Z,23.23
2023-05-11T17:07:19.151Z,22.84
2023-05-11T17:09:46.081Z,22.93
2023-05-11T17:12:13.104Z,23.10
2023-05-11T17:14:40.182Z,22.74
2023-05-11T17:17:07.428Z,22.77
2023-05-11T17:19:34.605Z,23.75
2023-05-11T17:22:02.166Z,23.22
2023-05-11T17:24:29.733Z,22.69
2023-05-11T17:26:56.981Z,23.01
2023-05-11T17:29:24.614Z,22.93
2023-05-11T17:31:52.689Z,22.83
2023-05-11T17:34:21.397Z,23.12
2023-05-11T17:36:50.153Z,22.71
2023-05-11T17:39:17.562Z,22.71
2023-05-11T17:41:45.220Z,22.87
2023-05-11T17:44:13.432Z,23.13
2023-05-11T17:46:40.626Z,23.11
2023-05-11T17:49:07.770Z,23.03
2023-05-11T17:51:34.940Z,22.82
2023-05-11T17:54:02.195Z,23.30
2023-05-11T17:56:29.765Z,23.06
2023-05-11T17:58:57.573Z,23.43
2023-05-11T18:01:25.029Z,23.56
2023-05-11T18:03:52.773Z,23.43
2023-05-11T18:06:20.129Z,23.52
2023-05-11T18:08:47.361Z,22.97
2023-05-11T18:11:15.509Z,22.97
2023-05-11T18:13:42.644Z,23.42
2023-05-11T18:16:09.749Z,23.54
2023-05-11T18:18:37.085Z,23.37
2023-05-11T18:21:04.360Z,23.75
2023-05-11T18:23:31.965Z,23.59
2023-05-11T18:25:59.372Z,25.60
2023-05-11T18:28:27.300Z,27.59
2023-05-11T18:30:54.527Z,28.81
2023-05-11T18:33:24.978Z,30.33
2023-05-11T18:35:52.269Z,32.11
2023-05-11T18:38:19.682Z,32.51
2023-05-11T18:40:46.953Z,32.19
2023-05-11T18:43:14.199Z,32.95
2023-05-11T18:45:41.449Z,33.09
2023-05-11T18:48:08.972Z,33.74
2023-05-11T18:50:36.214Z,33.58
2023-05-11T18:53:05.688Z,33.46
2023-05-11T18:55:44.904Z,34.02
2023-05-11T18:58:16.627Z,34.61
2023-05-11T19:00:44.644Z,34.16
2023-05-11T19:03:11.950Z,34.62
2023-05-11T19:05:39.640Z,34.96
2023-05-11T19:08:06.901Z,34.90
2023-05-11T19:10:34.228Z,34.53
2023-05-11T19:13:01.429Z,34.79
2023-05-11T19:15:28.584Z,34.15
2023-05-11T19:17:55.801Z,34.08
2023-05-11T19:20:22.988Z,34.80
2023-05-11T19:22:52.562Z,34.37
2023-05-11T19:25:19.733Z,35.16
2023-05-11T19:27:46.943Z,34.72
2023-05-11T19:30:14.149Z,34.50
2023-05-11T19:32:42.435Z,34.85
2023-05-11T19:35:11.557Z,34.49
2023-05-11T19:37:39.323Z,34.60
2023-05-11T19:40:43.070Z,35.31
2023-05-11T19:42:54.039Z,35.27
2023-05-11T19:45:21.528Z,35.22
2023-05-11T19:47:48.703Z,35.03
2023-05-11T19:50:16.064Z,35.30
2023-05-11T19:52:43.460Z,35.22
2023-05-11T19:55:10.653Z,35.16
2023-05-11T19:57:37.958Z,35.43
2023-05-11T20:00:05.543Z,35.35
2023-05-11T20:02:32.777Z,35.14
2023-05-11T20:05:00.400Z,35.51
2023-05-11T20:07:27.891Z,35.44
2023-05-11T20:09:54.955Z,35.57
2023-05-11T20:12:22.103Z,35.91
2023-05-11T20:14:49.237Z,35.64
2023-05-11T20:17:16.329Z,35.93
2023-05-11T20:19:43.476Z,36.12
2023-05-11T20:22:10.620Z,35.90
2023-05-11T20:24:37.727Z,36.26
2023-05-11T20:27:06.019Z,35.92
2023-05-11T20:29:33.305Z,36.08
2023-05-11T20:32:00.494Z,36.23
2023-05-11T20:34:27.736Z,36.60
2023-05-11T20:36:55.994Z,36.57
2023-05-11T20:39:25.629Z,36.88
2023-05-11T20:41:52.672Z,36.97
2023-05-11T20:44:19.662Z,37.31
2023-05-11T20:46:46.598Z,37.53
2023-05-11T20:49:13.384Z,37.78
2023-05-11T20:51:39.900Z,37.21
2023-05-11T20:54:06.232Z,37.58
2023-05-11T20:56:32.734Z,37.62
2023-05-11T20:58:59.150Z,37.86
2023-05-11T21:01:25.627Z,37.40
2023-05-11T21:03:52.147Z,37.36
2023-05-11T21:06:18.497Z,37.33
2023-05-11T21:08:45.023Z,37.84
2023-05-11T21:11:11.377Z,37.66
2023-05-11T21:13:38.018Z,37.87
2023-05-11T21:16:04.386Z,37.87
2023-05-11T21:18:30.883Z,38.00
2023-05-11T21:20:57.411Z,38.10
2023-05-11T21:23:23.808Z,38.04
2023-05-11T21:25:50.280Z,37.76
2023-05-11T21:28:16.587Z,37.80
2023-05-11T21:30:43.216Z,37.90
2023-05-11T21:33:09.710Z,37.92
2023-05-11T21:35:36.080Z,38.15
2023-05-11T21:38:02.477Z,38.39
2023-05-11T21:40:29.402Z,38.29
2023-05-11T21:42:55.874Z,38.35
2023-05-11T21:45:23.464Z,38.26
2023-05-11T21:47:49.915Z,38.56
2023-05-11T21:50:16.420Z,38.52
2023-05-11T21:52:43.217Z,38.85
2023-05-11T21:55:09.756Z,38.64
2023-05-11T21:57:36.097Z,38.57
2023-05-11T22:00:02.540Z,38.46
2023-05-11T22:02:29.604Z,38.89
2023-05-11T22:04:56.045Z,38.60
2023-05-11T22:07:22.483Z,38.76
2023-05-11T22:09:49.142Z,39.30
2023-05-11T22:12:15.655Z,39.28
2023-05-11T22:14:42.016Z,39.45
2023-05-11T22:17:08.390Z,39.25
2023-05-11T22:19:34.752Z,39.22
2023-05-11T22:22:01.142Z,39.57
2023-05-11T22:24:27.597Z,39.55
2023-05-11T22:26:53.995Z,39.61
2023-05-11T22:29:20.388Z,39.36
2023-05-11T22:31:46.864Z,39.59
2023-05-11T22:34:13.257Z,39.72
2023-05-11T22:36:39.722Z,39.72
2023-05-11T22:39:06.257Z,39.65
2023-05-11T22:41:32.677Z,39.67
2023-05-11T22:43:59.511Z,39.60
2023-05-11T22:46:25.907Z,39.64
2023-05-11T22:48:52.318Z,39.46
2023-05-11T22:51:18.705Z,39.62
2023-05-11T22:53:45.075Z,39.69
2023-05-11T22:56:11.474Z,39.90
2023-05-11T22:58:37.840Z,39.91
2023-05-11T23:01:04.241Z,39.54
2023-05-11T23:03:30.860Z,39.75
2023-05-11T23:05:57.443Z,39.70
2023-05-11T23:08:23.847Z,39.45
2023-05-11T23:10:50.285Z,39.26
2023-05-11T23:13:16.666Z,39.76
2023-05-11T23:15:43.356Z,39.93
2023-05-11T23:18:09.805Z,39.50
2023-05-11T23:20:36.316Z,40.07
2023-05-11T23:23:02.684Z,39.71
2023-05-11T23:25:29.141Z,39.46
2023-05-11T23:27:55.462Z,39.96
2023-05-11T23:30:22.129Z,39.89
2023-05-11T23:32:48.746Z,39.89
2023-05-11T23:35:15.112Z,39.49
2023-05-11T23:37:41.527Z,39.79
2023-05-11T23:40:08.203Z,39.74
2023-05-11T23:42:34.612Z,39.60
2023-05-11T23:45:01.047Z,39.83
2023-05-11T23:47:27.521Z,40.17
2023-05-11T23:49:54.021Z,40.21
2023-05-11T23:52:20.417Z,40.23
2023-05-11T23:54:46.778Z,40.15
2023-05-11T23:57:13.155Z,40.39
2023-05-11T23:59:39.509Z,40.58
